createdAt,value
2023-02-22T00:00:43.548Z,59.24
2023-02-22T00:03:15.280Z,59.29
2023-02-22T00:05:53.494Z,59.18
2023-02-22T00:08:23.443Z,59.53
2023-02-22T00:10:51.380Z,59.38
2023-02-22T00:13:22.664Z,59.31
2023-02-22T00:15:50.930Z,59.05
2023-02-22T00:18:19.595Z,59.04
2023-02-22T00:20:46.780Z,58.82
2023-02-22T00:23:18.964Z,59.01
2023-02-22T00:25:47.272Z,58.91
2023-02-22T00:28:15.185Z,59.12
2023-02-22T00:30:44.894Z,58.90
2023-02-22T00:33:15.876Z,58.81
2023-02-22T00:35:45.794Z,58.78
2023-02-22T00:38:15.477Z,58.40
2023-02-22T00:40:43.163Z,58.95
2023-02-22T00:43:10.062Z,58.69
2023-02-22T00:45:38.040Z,58.88
2023-02-22T00:48:06.979Z,58.85
2023-02-22T00:50:35.825Z,58.64
2023-02-22T00:53:04.959Z,59.04
2023-02-22T00:55:35.218Z,59.34
2023-02-22T00:58:03.355Z,59.07
2023-02-22T01:00:33.776Z,59.02
2023-02-22T01:03:00.796Z,59.08
2023-02-22T01:05:29.785Z,59.20
2023-02-22T01:08:00.950Z,59.23
2023-02-22T01:10:31.087Z,59.26
2023-02-22T01:13:00.133Z,59.11
2023-02-22T01:15:30.639Z,59.64
2023-02-22T01:17:59.584Z,59.36
2023-02-22T01:20:29.128Z,59.53
2023-02-22T01:23:00.373Z,59.69
2023-02-22T01:25:31.397Z,59.90
2023-02-22T01:28:01.137Z,59.86
2023-02-22T01:30:33.100Z,59.86
2023-02-22T01:33:02.190Z,60.13
2023-02-22T01:35:32.828Z,60.01
2023-02-22T01:38:01.434Z,60.00
2023-02-22T01:40:31.598Z,59.73
2023-02-22T01:43:03.702Z,59.95
2023-02-22T01:46:01.353Z,60.15
2023-02-22T01:48:39.905Z,60.25
2023-02-22T01:51:12.222Z,60.14
2023-02-22T01:53:49.175Z,59.95
2023-02-22T01:56:18.812Z,59.84
2023-02-22T01:58:54.181Z,60.09
2023-02-22T02:01:23.717Z,59.99
2023-02-22T02:03:58.131Z,60.18
2023-02-22T02:06:27.846Z,59.98
2023-02-22T02:09:04.364Z,60.22
2023-02-22T02:11:32.369Z,60.01
2023-02-22T02:13:59.646Z,60.27
2023-02-22T02:16:38.857Z,59.92
2023-02-22T02:19:16.854Z,60.03
2023-02-22T02:22:16.119Z,60.19
2023-02-22T02:25:39.794Z,60.88
2023-02-22T02:28:51.926Z,60.17
2023-02-22T02:32:09.695Z,60.29
2023-02-22T02:34:49.593Z,60.32
2023-02-22T02:37:28.062Z,60.53
2023-02-22T02:40:06.235Z,60.16
2023-02-22T02:42:41.234Z,60.26
2023-02-22T02:45:16.002Z,60.46
2023-02-22T02:47:51.873Z,60.34
2023-02-22T02:50:25.053Z,60.30
2023-02-22T02:52:57.047Z,60.40
2023-02-22T02:55:24.879Z,60.27
2023-02-22T02:57:52.502Z,60.32
2023-02-22T03:00:28.676Z,60.11
2023-02-22T03:03:14.555Z,60.09
2023-02-22T03:06:11.390Z,60.26
2023-02-22T03:08:50.345Z,60.19
2023-02-22T03:11:21.495Z,60.30
2023-02-22T03:14:02.635Z,60.02
2023-02-22T03:16:45.883Z,60.33
2023-02-22T03:19:27.990Z,60.33
2023-02-22T03:22:03.952Z,60.18
2023-02-22T03:24:37.468Z,60.40
2023-02-22T03:27:09.864Z,60.67
2023-02-22T03:29:43.893Z,60.78
2023-02-22T03:32:16.531Z,60.73
2023-02-22T03:34:53.045Z,60.55
2023-02-22T03:37:26.800Z,60.81
2023-02-22T03:39:59.569Z,60.69
2023-02-22T03:42:31.945Z,60.81
2023-02-22T03:45:04.998Z,60.77
2023-02-22T03:47:39.975Z,61.01
2023-02-22T03:50:15.226Z,60.89
2023-02-22T03:52:44.497Z,61.11
2023-02-22T03:55:13.514Z,61.43
2023-02-22T03:57:44.994Z,61.14
2023-02-22T04:00:20.088Z,61.19
2023-02-22T04:02:47.077Z,61.46
2023-02-22T04:05:15.945Z,61.14
2023-02-22T04:07:43.655Z,61.23
2023-02-22T04:10:11.802Z,61.26
2023-02-22T04:12:39.088Z,61.13
2023-02-22T04:15:08.380Z,61.09
2023-02-22T04:17:35.324Z,61.16
2023-02-22T04:20:03.719Z,61.76
2023-02-22T04:22:31.902Z,61.23
2023-02-22T04:24:58.865Z,61.26
2023-02-22T04:27:25.736Z,61.55
2023-02-22T04:29:52.988Z,61.88
2023-02-22T04:32:20.022Z,61.74
2023-02-22T04:34:46.939Z,61.35
2023-02-22T04:37:13.849Z,61.94
2023-02-22T04:39:42.176Z,62.01
2023-02-22T04:42:09.147Z,62.08
2023-02-22T04:44:36.062Z,61.80
2023-02-22T04:47:03.195Z,61.94
2023-02-22T04:49:30.083Z,61.95
2023-02-22T04:51:56.993Z,61.87
2023-02-22T04:54:23.929Z,61.93
2023-02-22T04:56:52.293Z,61.97
2023-02-22T04:59:19.694Z,62.10
2023-02-22T05:01:46.886Z,62.64
2023-02-22T05:04:13.876Z,62.39
2023-02-22T05:06:41.034Z,62.44
2023-02-22T05:09:07.999Z,62.76
2023-02-22T05:11:34.871Z,62.53
2023-02-22T05:14:03.079Z,62.97
2023-02-22T05:16:30.115Z,62.95
2023-02-22T05:18:57.067Z,63.23
2023-02-22T05:21:24.068Z,63.43
2023-02-22T05:23:51.081Z,63.68
2023-02-22T05:26:18.922Z,63.84
2023-02-22T05:28:45.855Z,64.12
2023-02-22T05:31:14.462Z,64.04
2023-02-22T05:33:41.557Z,64.30
2023-02-22T05:36:09.695Z,64.36
2023-02-22T05:38:43.197Z,64.26
2023-02-22T05:41:12.036Z,64.29
2023-02-22T05:43:39.736Z,64.24
2023-02-22T05:46:07.317Z,64.25
2023-02-22T05:48:35.615Z,64.05
2023-02-22T05:51:03.789Z,64.18
2023-02-22T05:53:30.742Z,64.30
2023-02-22T05:55:57.862Z,64.18
2023-02-22T05:58:25.951Z,64.12
2023-02-22T06:00:52.991Z,64.00
2023-02-22T06:03:19.887Z,63.83
2023-02-22T06:05:48.605Z,63.61
2023-02-22T06:08:15.660Z,63.60
2023-02-22T06:10:42.535Z,63.71
2023-02-22T06:13:09.804Z,63.43
2023-02-22T06:15:36.850Z,63.56
2023-02-22T06:18:04.213Z,63.48
2023-02-22T06:20:33.291Z,63.69
2023-02-22T06:23:01.841Z,63.73
2023-02-22T06:25:31.523Z,63.51
2023-02-22T06:27:59.206Z,63.83
2023-02-22T06:30:28.775Z,63.82
2023-02-22T06:32:55.905Z,63.53
2023-02-22T06:35:23.634Z,63.42
2023-02-22T06:37:50.976Z,63.41
2023-02-22T06:40:19.652Z,63.20
2023-02-22T06:42:48.934Z,62.76
2023-02-22T06:45:17.941Z,62.83
2023-02-22T06:47:45.255Z,62.78
2023-02-22T06:50:21.656Z,62.95
2023-02-22T06:52:48.710Z,62.64
2023-02-22T06:55:23.603Z,62.51
2023-02-22T06:57:51.686Z,62.70
2023-02-22T07:00:24.472Z,62.48
2023-02-22T07:02:52.543Z,62.29
2023-02-22T07:05:23.178Z,62.21
2023-02-22T07:07:53.789Z,62.01
2023-02-22T07:10:29.586Z,62.03
2023-02-22T07:12:56.677Z,61.84
2023-02-22T07:15:26.022Z,61.49
2023-02-22T07:17:53.022Z,61.56
2023-02-22T07:20:22.335Z,61.42
2023-02-22T07:22:50.746Z,60.86
2023-02-22T07:25:18.676Z,61.10
2023-02-22T07:27:47.287Z,60.49
2023-02-22T07:30:20.402Z,60.51
2023-02-22T07:32:47.849Z,60.88
2023-02-22T07:35:17.528Z,60.60
2023-02-22T07:37:44.697Z,60.62
2023-02-22T07:40:12.535Z,60.46
2023-02-22T07:42:54.242Z,60.67
2023-02-22T07:45:22.755Z,60.33
2023-02-22T07:47:49.830Z,60.10
2023-02-22T07:50:18.846Z,59.66
2023-02-22T07:52:46.892Z,59.70
2023-02-22T07:55:16.645Z,59.16
2023-02-22T07:57:45.881Z,58.65
2023-02-22T08:00:23.634Z,58.61
2023-02-22T08:02:50.858Z,58.85
2023-02-22T08:05:19.759Z,58.43
2023-02-22T08:07:46.745Z,58.04
2023-02-22T08:10:18.017Z,58.35
2023-02-22T08:12:45.345Z,58.36
2023-02-22T08:15:20.112Z,57.65
2023-02-22T08:17:47.196Z,57.10
2023-02-22T08:20:14.774Z,57.05
2023-02-22T08:22:44.037Z,57.77
2023-02-22T08:25:11.665Z,57.30
2023-02-22T08:27:38.886Z,57.64
2023-02-22T08:30:07.575Z,58.10
2023-02-22T08:32:35.923Z,57.80
2023-02-22T08:35:03.352Z,57.55
2023-02-22T08:37:30.311Z,58.17
2023-02-22T08:39:57.199Z,58.12
2023-02-22T08:42:24.491Z,57.94
2023-02-22T08:44:51.483Z,58.05
2023-02-22T08:47:18.463Z,57.88
2023-02-22T08:49:46.721Z,57.83
2023-02-22T08:52:13.573Z,57.56
2023-02-22T08:54:40.436Z,57.38
2023-02-22T08:57:07.626Z,56.95
2023-02-22T08:59:34.527Z,56.94
2023-02-22T09:02:02.706Z,56.57
2023-02-22T09:04:29.701Z,56.50
2023-02-22T09:06:57.935Z,55.71
2023-02-22T09:09:25.035Z,55.50
2023-02-22T09:11:53.188Z,55.03
2023-02-22T09:14:20.256Z,55.18
2023-02-22T09:16:47.277Z,54.71
2023-02-22T09:19:14.533Z,54.15
2023-02-22T09:21:41.536Z,54.12
2023-02-22T09:24:09.768Z,53.84
2023-02-22T09:26:39.342Z,53.69
2023-02-22T09:29:09.725Z,53.53
2023-02-22T09:31:38.496Z,51.80
2023-02-22T09:34:13.533Z,52.04
2023-02-22T09:36:41.230Z,51.39
2023-02-22T09:39:11.255Z,50.26
2023-02-22T09:41:50.990Z,49.75
2023-02-22T09:44:29.174Z,48.81
2023-02-22T09:46:58.684Z,47.76
2023-02-22T09:49:34.190Z,44.41
2023-02-22T09:52:08.067Z,44.75
2023-02-22T09:54:46.147Z,43.25
2023-02-22T09:57:20.055Z,41.18
2023-02-22T10:00:00.954Z,41.06
2023-02-22T10:02:34.538Z,41.94
2023-02-22T10:05:13.690Z,40.68
2023-02-22T10:07:51.338Z,39.94
2023-02-22T10:10:22.803Z,40.08
2023-02-22T10:13:02.461Z,40.05
2023-02-22T10:15:51.402Z,40.27
2023-02-22T10:18:50.230Z,40.62
2023-02-22T10:21:49.459Z,41.10
2023-02-22T10:24:39.525Z,41.09
2023-02-22T10:27:18.816Z,41.60
2023-02-22T10:29:52.821Z,41.51
2023-02-22T10:32:29.128Z,42.31
2023-02-22T10:34:59.868Z,41.57
2023-02-22T10:37:30.624Z,41.71
2023-02-22T10:40:12.457Z,42.34
2023-02-22T10:42:40.665Z,42.47
2023-02-22T10:45:23.566Z,42.47
2023-02-22T10:47:54.023Z,42.28
2023-02-22T10:50:22.400Z,42.89
2023-02-22T10:52:49.619Z,43.75
2023-02-22T10:55:17.257Z,44.30
2023-02-22T10:57:50.814Z,44.18
2023-02-22T11:00:26.314Z,43.82
2023-02-22T11:02:57.264Z,43.83
2023-02-22T11:05:36.692Z,43.86
2023-02-22T11:08:28.025Z,43.79
2023-02-22T11:10:58.670Z,43.55
2023-02-22T11:13:31.539Z,42.95
2023-02-22T11:16:03.054Z,42.78
2023-02-22T11:18:34.090Z,42.55
2023-02-22T11:21:05.664Z,42.72
2023-02-22T11:23:33.310Z,42.26
2023-02-22T11:26:11.260Z,41.58
2023-02-22T11:28:49.118Z,41.07
2023-02-22T11:31:21.367Z,42.12
2023-02-22T11:36:40.469Z,42.52
2023-02-22T11:39:24.399Z,43.19
2023-02-22T11:41:51.792Z,42.49
2023-02-22T11:44:26.709Z,42.90
2023-02-22T11:46:57.702Z,42.60
2023-02-22T11:49:34.024Z,42.86
2023-02-22T11:52:26.055Z,42.65
2023-02-22T11:55:32.598Z,42.30
2023-02-22T11:58:29.992Z,43.30
2023-02-22T12:01:08.136Z,43.04
2023-02-22T12:04:01.641Z,42.95
2023-02-22T12:06:44.867Z,42.69
2023-02-22T12:09:19.083Z,42.77
2023-02-22T12:11:59.646Z,42.84
2023-02-22T12:14:38.679Z,43.35
2023-02-22T12:17:26.429Z,43.78
2023-02-22T12:20:01.847Z,44.02
2023-02-22T12:22:34.467Z,44.69
2023-02-22T12:25:09.783Z,45.35
2023-02-22T12:27:44.067Z,45.15
2023-02-22T12:30:20.683Z,45.49
2023-02-22T12:32:53.420Z,45.83
2023-02-22T12:35:24.906Z,46.18
2023-02-22T12:38:04.517Z,46.12
2023-02-22T12:40:39.946Z,45.95
2023-02-22T12:43:16.884Z,45.66
2023-02-22T12:45:50.370Z,45.70
2023-02-22T12:48:35.506Z,46.44
2023-02-22T12:51:19.245Z,46.60
2023-02-22T12:53:58.174Z,46.20
2023-02-22T12:56:33.787Z,46.57
2023-02-22T12:59:10.092Z,46.71
2023-02-22T13:01:42.082Z,46.76
2023-02-22T13:04:20.420Z,46.66
2023-02-22T13:07:09.861Z,46.67
2023-02-22T13:10:23.293Z,46.86
2023-02-22T13:13:03.886Z,46.97
2023-02-22T13:15:45.678Z,47.40
2023-02-22T13:18:21.536Z,46.68
2023-02-22T13:21:02.503Z,46.40
2023-02-22T13:23:46.322Z,46.69
2023-02-22T13:26:24.442Z,46.31
2023-02-22T13:29:00.435Z,46.92
2023-02-22T13:32:00.550Z,46.99
2023-02-22T13:34:50.877Z,47.17
2023-02-22T13:38:01.315Z,47.57
2023-02-22T13:40:55.681Z,47.94
2023-02-22T13:44:37.693Z,47.69
2023-02-22T13:48:00.455Z,47.27
2023-02-22T13:50:51.238Z,47.69
2023-02-22T13:53:26.152Z,47.90
2023-02-22T13:56:00.605Z,48.13
2023-02-22T13:58:27.899Z,48.33
2023-02-22T14:00:58.153Z,47.94
2023-02-22T14:03:37.584Z,48.67
2023-02-22T14:06:06.310Z,47.88
2023-02-22T14:08:45.813Z,48.16
2023-02-22T14:11:43.017Z,48.30
2023-02-22T14:14:17.712Z,48.44
2023-02-22T14:17:04.970Z,48.91
2023-02-22T14:19:32.216Z,48.97
2023-02-22T14:22:02.471Z,49.11
2023-02-22T14:24:43.714Z,49.34
2023-02-22T14:27:13.220Z,49.33
2023-02-22T14:29:53.563Z,49.50
2023-02-22T14:32:30.484Z,49.49
2023-02-22T14:35:00.701Z,49.67
2023-02-22T14:37:33.727Z,50.03
2023-02-22T14:40:13.406Z,50.08
2023-02-22T14:42:48.059Z,49.93
2023-02-22T14:45:24.770Z,50.28
2023-02-22T14:48:04.068Z,49.99
2023-02-22T14:50:44.214Z,50.05
2023-02-22T14:53:25.987Z,50.05
2023-02-22T14:56:02.389Z,50.18
2023-02-22T14:58:38.138Z,50.46
2023-02-22T15:01:31.230Z,50.69
2023-02-22T15:04:18.960Z,50.45
2023-02-22T15:06:46.824Z,50.99
2023-02-22T15:09:24.690Z,51.04
2023-02-22T15:12:12.967Z,51.06
2023-02-22T15:14:41.710Z,51.27
2023-02-22T15:17:18.080Z,51.51
2023-02-22T15:19:50.795Z,51.56
2023-02-22T15:22:25.130Z,51.54
2023-02-22T15:25:00.324Z,51.53
2023-02-22T15:27:29.417Z,51.49
2023-02-22T15:30:05.007Z,51.72
2023-02-22T15:32:36.570Z,51.89
2023-02-22T15:35:16.600Z,52.08
2023-02-22T15:37:44.623Z,52.37
2023-02-22T15:40:16.237Z,52.38
2023-02-22T15:42:48.458Z,52.40
2023-02-22T15:45:20.105Z,52.32
2023-02-22T15:47:49.467Z,52.63
2023-02-22T15:50:25.760Z,52.64
2023-02-22T15:52:58.181Z,52.58
2023-02-22T15:55:29.036Z,52.73
2023-02-22T15:58:07.602Z,52.71
2023-02-22T16:00:38.712Z,52.68
2023-02-22T16:03:09.922Z,52.82
2023-02-22T16:05:42.181Z,53.09
2023-02-22T16:08:17.808Z,53.22
2023-02-22T16:10:58.341Z,53.07
2023-02-22T16:13:32.431Z,53.07
2023-02-22T16:16:03.088Z,52.94
2023-02-22T16:18:34.375Z,53.26
2023-02-22T16:21:06.282Z,53.32
2023-02-22T16:23:45.358Z,53.48
2023-02-22T16:26:23.730Z,53.32
2023-02-22T16:28:56.036Z,53.60
2023-02-22T16:31:25.638Z,53.75
2023-02-22T16:33:54.040Z,54.01
2023-02-22T16:36:36.903Z,53.88
2023-02-22T16:39:07.078Z,54.23
2023-02-22T16:41:34.317Z,54.02
2023-02-22T16:44:03.084Z,54.52
2023-02-22T16:46:30.113Z,54.53
2023-02-22T16:49:03.175Z,54.46
2023-02-22T16:51:40.726Z,54.18
2023-02-22T16:54:13.009Z,54.18
2023-02-22T16:56:40.670Z,54.26
2023-02-22T16:59:14.710Z,54.42
2023-02-22T17:01:42.315Z,54.61
2023-02-22T17:04:15.831Z,54.58
2023-02-22T17:06:42.738Z,54.71
2023-02-22T17:09:10.131Z,54.95
2023-02-22T17:11:37.761Z,55.08
2023-02-22T17:14:05.804Z,55.29
2023-02-22T17:16:34.082Z,55.33
2023-02-22T17:19:01.052Z,55.03
2023-02-22T17:21:27.931Z,55.04
2023-02-22T17:23:54.973Z,54.87
2023-02-22T17:26:22.180Z,54.98
2023-02-22T17:28:49.159Z,54.96
2023-02-22T17:31:23.971Z,54.81
2023-02-22T17:33:52.646Z,54.83
2023-02-22T17:36:20.664Z,54.76
2023-02-22T17:38:50.210Z,54.90
2023-02-22T17:41:17.349Z,55.00
2023-02-22T17:43:44.268Z,54.64
2023-02-22T17:46:11.356Z,54.79
2023-02-22T17:48:39.253Z,54.70
2023-02-22T17:51:10.614Z,54.79
2023-02-22T17:53:39.088Z,54.87
2023-02-22T17:56:07.680Z,54.82
2023-02-22T17:58:35.066Z,54.91
2023-02-22T18:01:02.683Z,54.58
2023-02-22T18:03:30.274Z,54.70
2023-02-22T18:06:00.952Z,54.88
2023-02-22T18:08:33.755Z,54.64
2023-02-22T18:11:05.175Z,54.50
2023-02-22T18:13:32.083Z,54.87
2023-02-22T18:16:04.836Z,54.89
2023-02-22T18:18:32.430Z,55.08
2023-02-22T18:20:59.799Z,55.02
2023-02-22T18:23:31.371Z,55.13
2023-02-22T18:26:10.515Z,55.26
2023-02-22T18:28:38.693Z,55.20
2023-02-22T18:31:08.540Z,55.38
2023-02-22T18:33:35.708Z,55.34
2023-02-22T18:36:03.005Z,55.17
2023-02-22T18:38:31.570Z,55.43
2023-02-22T18:41:00.818Z,55.36
2023-02-22T18:43:28.846Z,55.06
2023-02-22T18:46:05.895Z,55.38
2023-02-22T18:48:33.072Z,55.52
2023-02-22T18:51:00.145Z,55.66
2023-02-22T18:53:28.258Z,55.54
2023-02-22T18:55:56.612Z,55.81
2023-02-22T18:58:23.613Z,55.66
2023-02-22T19:00:54.833Z,55.79
2023-02-22T19:03:21.911Z,55.96
2023-02-22T19:05:52.109Z,56.03
2023-02-22T19:08:19.197Z,55.44
2023-02-22T19:10:49.399Z,55.71
2023-02-22T19:13:18.819Z,55.48
2023-02-22T19:15:45.716Z,55.59
2023-02-22T19:18:12.940Z,55.52
2023-02-22T19:23:10.129Z,55.51
2023-02-22T19:25:40.950Z,55.29
2023-02-22T19:28:07.890Z,55.56
2023-02-22T19:30:36.091Z,55.58
2023-02-22T19:33:04.783Z,55.17
2023-02-22T19:35:31.767Z,55.26
2023-02-22T19:37:58.781Z,55.55
2023-02-22T19:40:26.472Z,55.53
2023-02-22T19:42:57.174Z,55.56
2023-02-22T19:45:24.880Z,55.60
2023-02-22T19:47:55.803Z,55.41
2023-02-22T19:50:22.962Z,55.80
2023-02-22T19:52:50.079Z,55.57
2023-02-22T19:55:17.044Z,55.70
2023-02-22T19:57:49.962Z,55.53
2023-02-22T20:00:24.309Z,55.51
2023-02-22T20:03:05.657Z,55.84
2023-02-22T20:05:33.440Z,55.92
2023-02-22T20:08:00.468Z,55.97
2023-02-22T20:10:27.700Z,55.58
2023-02-22T20:12:54.644Z,55.53
2023-02-22T20:15:23.904Z,55.52
2023-02-22T20:17:51.369Z,55.90
2023-02-22T20:20:21.289Z,56.01
2023-02-22T20:22:48.199Z,55.79
2023-02-22T20:25:15.566Z,56.07
2023-02-22T20:27:42.531Z,55.96
2023-02-22T20:30:11.469Z,56.25
2023-02-22T20:32:39.146Z,56.34
2023-02-22T20:35:07.878Z,56.17
2023-02-22T20:37:38.775Z,56.25
2023-02-22T20:40:07.020Z,56.66
2023-02-22T20:42:33.938Z,56.88
2023-02-22T20:45:04.543Z,56.67
2023-02-22T20:47:31.983Z,56.74
2023-02-22T20:49:59.114Z,56.64
2023-02-22T20:52:26.140Z,56.77
2023-02-22T20:54:56.253Z,56.88
2023-02-22T20:57:23.417Z,56.88
2023-02-22T20:59:50.337Z,57.22
2023-02-22T21:02:17.251Z,57.12
2023-02-22T21:04:44.224Z,57.25
2023-02-22T21:07:11.268Z,57.63
2023-02-22T21:09:38.509Z,57.64
2023-02-22T21:12:13.242Z,57.61
2023-02-22T21:14:41.498Z,57.99
2023-02-22T21:17:09.115Z,58.22
2023-02-22T21:19:36.584Z,57.78
2023-02-22T21:22:08.097Z,57.92
2023-02-22T21:24:36.776Z,58.09
2023-02-22T21:27:06.685Z,58.19
2023-02-22T21:29:35.448Z,58.36
2023-02-22T21:32:02.812Z,58.75
2023-02-22T21:34:29.760Z,58.54
2023-02-22T21:36:57.573Z,58.63
2023-02-22T21:39:28.263Z,58.60
2023-02-22T21:42:00.102Z,58.82
2023-02-22T21:44:28.214Z,58.80
2023-02-22T21:46:57.101Z,58.68
2023-02-22T21:49:24.903Z,58.80
2023-02-22T21:51:52.492Z,58.91
2023-02-22T21:54:20.148Z,58.95
2023-02-22T21:56:47.784Z,59.16
2023-02-22T21:59:18.791Z,59.24
2023-02-22T22:01:49.749Z,59.14
2023-02-22T22:04:22.032Z,59.06
2023-02-22T22:06:52.169Z,59.13
2023-02-22T22:09:20.114Z,59.17
2023-02-22T22:11:52.074Z,59.31
2023-02-22T22:14:21.784Z,59.22
2023-02-22T22:16:51.473Z,59.14
2023-02-22T22:19:20.038Z,59.36
2023-02-22T22:21:48.668Z,59.53
2023-02-22T22:24:15.823Z,59.57
2023-02-22T22:26:43.938Z,59.62
2023-02-22T22:29:11.431Z,59.80
2023-02-22T22:31:38.656Z,59.63
2023-02-22T22:34:05.914Z,59.93
2023-02-22T22:36:34.668Z,60.19
2023-02-22T22:39:02.011Z,60.28
2023-02-22T22:41:29.072Z,59.99
2023-02-22T22:43:56.360Z,60.08
2023-02-22T22:46:23.794Z,59.79
2023-02-22T22:48:50.661Z,60.12
2023-02-22T22:51:21.243Z,60.17
2023-02-22T22:53:51.524Z,59.95
2023-02-22T22:56:21.505Z,59.69
2023-02-22T22:58:50.981Z,59.93
2023-02-22T23:01:26.605Z,60.22
2023-02-22T23:03:56.542Z,60.24
2023-02-22T23:06:25.968Z,60.14
2023-02-22T23:09:00.356Z,59.90
2023-02-22T23:11:30.247Z,60.69
2023-02-22T23:13:57.106Z,60.80
2023-02-22T23:16:24.731Z,60.80
2023-02-22T23:18:51.674Z,60.87
2023-02-22T23:21:23.666Z,61.03
2023-02-22T23:23:54.174Z,61.00
2023-02-22T23:26:22.477Z,61.09
2023-02-22T23:28:49.501Z,60.74
2023-02-22T23:31:18.025Z,60.42
2023-02-22T23:33:50.744Z,60.42
2023-02-22T23:36:19.621Z,60.47
2023-02-22T23:38:46.828Z,60.63
2023-02-22T23:41:16.487Z,60.09
2023-02-22T23:43:46.116Z,60.22
2023-02-22T23:46:18.448Z,60.25
2023-02-22T23:48:51.354Z,60.21
2023-02-22T23:51:25.304Z,60.37
2023-02-22T23:53:55.530Z,60.49
2023-02-22T23:56:25.219Z,60.23
2023-02-22T23:58:57.358Z,60.36
